Huvudsida
METAR-TAF:

METAR-TAF

Flygplatser :

Koror, Babeldaob, Palau

latitud: 07-22N, longitud: 134-32E, höjd: 54 m

Aktuellt väderrapport

Denna rapport gjordes för 33 minuter sedan, klockan 10:50 UTC
Vind 4 kt från väst/sydväst
Temperatur 27°C
Fuktighet 84%
Tryck 1010 hPa
Sikt: 24.1 km
Spridda moln på en höjd av 1600 ft
Brutna moln på en höjd av 12000 ft
Brutna moln på en höjd av 30000 ft

METAR: PTRO 191050Z 24004KT 15SM SCT016 BKN120 BKN300 27/24 A2983

Tid: 20:23 (11:23 UTC)

Väderprognos

Denna rapport gjordes för 5 timmar och 57 minuter sedan, klockan 05:26 UTC
Prognos gäller från 19 kl. 06 UTC till 20 kl. 06 UTC
Vind 7 kt från sydväst
Sikt: 10 km
Spridda moln på en höjd av 1500 ft
Brutna moln på en höjd av 12000 ft
skurar i närheten
Temporärt
från 19 kl. 06 UTC till 19 kl. 09 UTC
Sikt: 6.4 km
Mulet på en höjd av 1500 ft
regnskurar

TAF: PTRO 190526Z 1906/2006 23007KT P6SM VCSH SCT015 BKN120 TEMPO 1906/1909 4SM SHRA OVC015

Aktuella väderrapporter och prognoser från 4000 flygplatser (METAR- och TAF-rapporter).

De tillgängliga stationerna syns som gula och röda prickar på kartan.

För musen över prickarna för att se namnen på stationerna.

Klicka sedan för att få väderrapporter och prognoser.

För att ändra kartan: Klicka på de gröna knapparna med ett svart kors på för att zooma in; den gröna knappen med ett streck på för att zooma ut; eller på de gröna pilarna för angränsande kartor.


METAR-TAF: